createdAt,value
2018-12-11T00:00:28.563Z,39.00
2018-12-11T00:03:04.084Z,39.70
2018-12-11T00:05:38.688Z,41.90
2018-12-11T00:08:13.037Z,42.90
2018-12-11T00:10:47.437Z,43.50
2018-12-11T00:13:22.311Z,42.90
2018-12-11T00:15:58.567Z,42.60
2018-12-11T00:18:34.504Z,42.20
2018-12-11T00:24:00.619Z,43.80
2018-12-11T00:26:35.248Z,43.70
2018-12-11T00:29:10.787Z,43.40
2018-12-11T00:31:45.555Z,42.40
2018-12-11T00:34:20.390Z,41.10
2018-12-11T00:36:59.503Z,41.60
2018-12-11T00:39:34.615Z,41.30
2018-12-11T00:42:13.829Z,40.90
2018-12-11T00:44:50.052Z,41.20
2018-12-11T00:47:25.522Z,42.40
2018-12-11T00:50:00.892Z,43.00
2018-12-11T00:52:35.655Z,44.40
2018-12-11T00:55:12.878Z,45.20
2018-12-11T00:57:50.739Z,45.30
2018-12-11T01:00:28.477Z,45.70
2018-12-11T01:03:03.785Z,45.70
2018-12-11T01:05:38.384Z,45.70
2018-12-11T01:08:12.684Z,45.70
2018-12-11T01:10:48.459Z,45.90
2018-12-11T01:13:26.228Z,45.80
2018-12-11T01:16:01.335Z,45.80
2018-12-11T01:18:40.796Z,46.60
2018-12-11T01:21:17.617Z,45.90
2018-12-11T01:23:53.966Z,45.90
2018-12-11T01:26:28.343Z,45.90
2018-12-11T01:29:04.382Z,45.90
2018-12-11T01:31:44.286Z,45.90
2018-12-11T01:37:00.246Z,45.90
2018-12-11T01:39:35.756Z,46.00
2018-12-11T01:42:12.678Z,46.00
2018-12-11T01:44:48.097Z,46.00
2018-12-11T01:47:27.689Z,46.00
2018-12-11T01:50:04.404Z,46.60
2018-12-11T01:52:39.357Z,46.80
2018-12-11T01:55:15.435Z,46.50
2018-12-11T01:57:55.274Z,47.00
2018-12-11T02:00:30.992Z,47.00
2018-12-11T02:03:08.113Z,47.30
2018-12-11T02:05:43.758Z,46.60
2018-12-11T02:11:07.780Z,46.70
2018-12-11T02:13:43.607Z,46.60
2018-12-11T02:16:20.278Z,46.60
2018-12-11T02:18:57.881Z,46.10
2018-12-11T02:21:34.946Z,46.30
2018-12-11T02:24:11.641Z,46.70
2018-12-11T02:26:48.417Z,46.30
2018-12-11T02:29:23.903Z,46.60
2018-12-11T02:31:59.607Z,46.00
2018-12-11T02:34:34.554Z,46.00
2018-12-11T02:37:09.801Z,46.10
2018-12-11T02:39:45.199Z,46.10
2018-12-11T02:42:20.193Z,45.40
2018-12-11T02:44:55.774Z,45.10
2018-12-11T02:47:31.570Z,44.90
2018-12-11T02:50:10.188Z,45.30
2018-12-11T02:52:51.855Z,45.70
2018-12-11T02:55:33.512Z,46.00
2018-12-11T02:58:10.850Z,45.20
2018-12-11T03:00:51.420Z,44.80
2018-12-11T03:03:29.139Z,44.60
2018-12-11T03:06:06.222Z,45.00
2018-12-11T03:08:42.937Z,45.40
2018-12-11T03:11:18.655Z,45.50
2018-12-11T03:13:55.370Z,45.80
2018-12-11T03:16:32.077Z,45.70
2018-12-11T03:19:07.490Z,45.70
2018-12-11T03:21:52.809Z,45.20
2018-12-11T03:24:32.911Z,44.70
2018-12-11T03:27:09.364Z,44.50
2018-12-11T03:29:51.052Z,44.30
2018-12-11T03:32:30.168Z,43.80
2018-12-11T03:35:14.681Z,44.00
2018-12-11T03:37:53.048Z,44.10
2018-12-11T03:40:33.560Z,43.90
2018-12-11T03:43:11.005Z,43.50
2018-12-11T03:45:49.542Z,41.40
2018-12-11T03:48:28.470Z,41.90
2018-12-11T03:51:05.364Z,42.70
2018-12-11T03:53:42.680Z,42.00
2018-12-11T03:56:17.698Z,41.90
2018-12-11T03:58:54.613Z,41.80
2018-12-11T04:01:29.499Z,41.20
2018-12-11T04:04:04.122Z,40.90
2018-12-11T04:06:40.059Z,40.40
2018-12-11T04:09:16.859Z,41.00
2018-12-11T04:11:52.902Z,40.70
2018-12-11T04:14:29.152Z,40.00
2018-12-11T04:17:06.097Z,39.50
2018-12-11T04:19:42.770Z,38.70
2018-12-11T04:22:17.590Z,38.60
2018-12-11T04:24:53.556Z,37.50
2018-12-11T04:27:30.541Z,38.60
2018-12-11T04:30:08.924Z,39.80
2018-12-11T04:32:44.440Z,39.90
2018-12-11T04:35:19.771Z,40.00
2018-12-11T04:37:56.318Z,40.70
2018-12-11T04:40:31.596Z,41.30
2018-12-11T04:43:06.732Z,42.10
2018-12-11T04:45:58.262Z,42.50
2018-12-11T04:48:33.894Z,42.40
2018-12-11T04:51:11.433Z,41.10
2018-12-11T04:53:54.479Z,41.00
2018-12-11T04:56:31.218Z,41.50
2018-12-11T04:59:10.191Z,41.60
2018-12-11T05:01:46.977Z,41.60
2018-12-11T05:04:22.756Z,41.70
2018-12-11T05:06:59.649Z,42.00
2018-12-11T05:09:34.154Z,42.50
2018-12-11T05:12:10.694Z,42.70
2018-12-11T05:14:45.462Z,42.20
2018-12-11T05:17:24.627Z,42.70
2018-12-11T05:20:01.356Z,42.70
2018-12-11T05:22:38.038Z,42.40
2018-12-11T05:25:14.958Z,42.90
2018-12-11T05:27:52.708Z,42.00
2018-12-11T05:30:35.153Z,41.00
2018-12-11T05:33:11.549Z,41.00
2018-12-11T05:35:47.809Z,40.60
2018-12-11T05:38:29.028Z,40.40
2018-12-11T05:41:06.406Z,39.50
2018-12-11T05:43:43.430Z,39.70
2018-12-11T05:46:19.539Z,39.60
2018-12-11T05:48:56.288Z,40.50
2018-12-11T05:51:33.010Z,40.50
2018-12-11T05:54:34.607Z,39.90
2018-12-11T05:57:19.196Z,40.00
2018-12-11T05:59:58.344Z,39.30
2018-12-11T06:02:34.847Z,39.20
2018-12-11T06:05:10.386Z,39.30
2018-12-11T06:07:47.261Z,39.30
2018-12-11T06:10:23.336Z,38.10
2018-12-11T06:12:58.935Z,39.10
2018-12-11T06:15:37.055Z,39.20
2018-12-11T06:18:12.807Z,38.90
2018-12-11T06:20:49.715Z,39.60
2018-12-11T06:23:25.724Z,40.30
2018-12-11T06:26:04.200Z,40.20
2018-12-11T06:28:41.370Z,40.30
2018-12-11T06:31:18.670Z,40.50
2018-12-11T06:33:57.115Z,40.70
2018-12-11T06:36:33.430Z,40.40
2018-12-11T06:39:09.047Z,41.00
2018-12-11T06:41:46.634Z,41.80
2018-12-11T06:44:26.858Z,41.40
2018-12-11T06:47:12.777Z,42.10
2018-12-11T06:49:56.623Z,42.10
2018-12-11T06:52:44.347Z,42.30
2018-12-11T06:55:26.429Z,42.80
2018-12-11T06:58:11.583Z,43.20
2018-12-11T07:01:04.361Z,43.80
2018-12-11T07:03:40.974Z,43.60
2018-12-11T07:09:23.920Z,43.30
2018-12-11T07:12:18.634Z,43.20
2018-12-11T07:15:01.970Z,43.20
2018-12-11T07:17:45.068Z,43.70
2018-12-11T07:20:25.119Z,43.60
2018-12-11T07:23:01.346Z,44.10
2018-12-11T07:25:51.277Z,44.10
2018-12-11T07:28:30.185Z,44.30
2018-12-11T07:31:05.956Z,44.50
2018-12-11T07:33:41.584Z,44.60
2018-12-11T07:36:21.569Z,44.50
2018-12-11T07:38:56.715Z,45.30
2018-12-11T07:41:31.511Z,44.90
2018-12-11T07:44:06.086Z,45.10
2018-12-11T07:46:42.123Z,45.00
2018-12-11T07:49:17.270Z,44.80
2018-12-11T07:51:52.314Z,44.90
2018-12-11T07:54:26.871Z,45.60
2018-12-11T07:57:01.674Z,45.60
2018-12-11T07:59:36.618Z,45.10
2018-12-11T08:02:11.159Z,45.60
2018-12-11T08:04:45.593Z,45.60
2018-12-11T08:07:19.804Z,45.50
2018-12-11T08:09:55.000Z,45.50
2018-12-11T08:12:31.964Z,45.90
2018-12-11T08:15:06.621Z,45.50
2018-12-11T08:17:42.017Z,45.60
2018-12-11T08:20:16.414Z,45.50
2018-12-11T08:22:59.625Z,45.60
2018-12-11T08:25:42.256Z,45.60
2018-12-11T08:28:18.586Z,45.60
2018-12-11T08:30:53.766Z,45.70
2018-12-11T08:33:28.503Z,45.30
2018-12-11T08:36:02.958Z,44.80
2018-12-11T08:38:43.240Z,44.80
2018-12-11T08:41:19.139Z,44.80
2018-12-11T08:43:53.981Z,44.70
2018-12-11T08:46:29.005Z,44.40
2018-12-11T08:49:07.939Z,44.50
2018-12-11T08:51:44.437Z,44.60
2018-12-11T08:54:18.896Z,45.10
2018-12-11T08:56:54.087Z,44.50
2018-12-11T08:59:32.604Z,43.90
2018-12-11T09:02:07.568Z,43.50
2018-12-11T09:04:43.473Z,43.70
2018-12-11T09:07:18.717Z,43.60
2018-12-11T09:09:58.836Z,43.80
2018-12-11T09:12:33.189Z,44.10
2018-12-11T09:15:07.842Z,44.10
2018-12-11T09:17:43.351Z,44.00
2018-12-11T09:20:18.276Z,44.00
2018-12-11T09:22:52.522Z,43.90
2018-12-11T09:25:35.392Z,43.80
2018-12-11T09:28:11.223Z,43.50
2018-12-11T09:30:47.987Z,43.20
2018-12-11T09:33:22.986Z,43.30
2018-12-11T09:35:57.666Z,43.40
2018-12-11T09:38:32.110Z,43.50
2018-12-11T09:41:06.490Z,43.10
2018-12-11T09:43:40.819Z,42.40
2018-12-11T09:46:16.358Z,42.90
2018-12-11T09:48:51.385Z,42.60
2018-12-11T09:51:25.684Z,42.80
2018-12-11T09:53:59.858Z,42.00
2018-12-11T09:56:34.482Z,42.10
2018-12-11T09:59:09.451Z,42.00
2018-12-11T10:01:44.067Z,42.10
2018-12-11T10:04:22.184Z,40.90
2018-12-11T10:06:56.733Z,40.60
2018-12-11T10:09:31.649Z,40.80
2018-12-11T10:12:12.661Z,41.10
2018-12-11T10:14:51.312Z,41.20
2018-12-11T10:17:27.310Z,41.00
2018-12-11T10:20:05.497Z,40.70
2018-12-11T10:22:41.232Z,40.30
2018-12-11T10:25:16.718Z,39.20
2018-12-11T10:27:56.788Z,38.90
2018-12-11T10:30:36.503Z,37.90
2018-12-11T10:33:12.522Z,37.90
2018-12-11T10:35:48.670Z,37.80
2018-12-11T10:38:24.232Z,37.90
2018-12-11T10:41:00.172Z,38.40
2018-12-11T10:43:34.316Z,37.90
2018-12-11T10:46:09.371Z,37.20
2018-12-11T10:48:43.603Z,38.00
2018-12-11T10:51:18.672Z,36.50
2018-12-11T10:53:54.439Z,37.20
2018-12-11T10:56:28.855Z,37.00
2018-12-11T10:59:03.149Z,36.50
2018-12-11T11:01:40.269Z,36.10
2018-12-11T11:04:15.215Z,35.10
2018-12-11T11:06:49.420Z,35.80
2018-12-11T11:09:24.789Z,35.20
2018-12-11T11:12:00.053Z,33.10
2018-12-11T11:14:34.479Z,31.20
2018-12-11T11:17:09.570Z,31.20
2018-12-11T11:19:43.863Z,31.20
2018-12-11T11:22:18.117Z,30.00
2018-12-11T11:24:52.425Z,30.30
2018-12-11T11:27:27.027Z,29.60
2018-12-11T11:30:01.427Z,29.90
2018-12-11T11:32:36.674Z,29.70
2018-12-11T11:35:11.909Z,26.80
2018-12-11T11:37:47.837Z,26.80
2018-12-11T11:40:22.330Z,25.30
2018-12-11T11:42:57.645Z,22.70
2018-12-11T11:45:33.007Z,23.10
2018-12-11T11:48:08.351Z,23.80
2018-12-11T11:50:45.152Z,23.30
2018-12-11T11:53:19.598Z,22.80
2018-12-11T11:55:54.346Z,20.90
2018-12-11T11:58:28.680Z,21.50
2018-12-11T12:01:05.414Z,21.70
2018-12-11T12:03:40.942Z,21.60
2018-12-11T12:06:16.258Z,19.80
2018-12-11T12:08:50.756Z,20.20
2018-12-11T12:11:27.718Z,19.90
2018-12-11T12:14:03.086Z,19.30
2018-12-11T12:16:37.482Z,19.00
2018-12-11T12:19:12.213Z,18.90
2018-12-11T12:21:46.645Z,18.80
2018-12-11T12:24:21.482Z,18.20
2018-12-11T12:26:55.958Z,15.80
2018-12-11T12:29:30.454Z,17.80
2018-12-11T12:32:05.385Z,17.60
2018-12-11T12:34:39.764Z,17.50
2018-12-11T12:37:14.070Z,16.20
2018-12-11T12:39:51.550Z,16.90
2018-12-11T12:42:27.275Z,16.70
2018-12-11T12:45:01.695Z,17.80
2018-12-11T12:47:40.033Z,18.40
2018-12-11T12:50:17.316Z,18.20
2018-12-11T12:52:57.715Z,18.90
2018-12-11T12:55:34.192Z,17.30
2018-12-11T12:58:09.887Z,14.00
2018-12-11T13:00:45.033Z,9.00
2018-12-11T13:03:21.458Z,6.70
2018-12-11T13:05:57.805Z,4.50
2018-12-11T13:08:32.419Z,4.10
2018-12-11T13:11:07.529Z,1.00
2018-12-11T13:13:42.166Z,1.00
2018-12-11T13:16:16.355Z,1.00
2018-12-11T13:18:50.744Z,1.00
2018-12-11T13:21:25.079Z,1.00
2018-12-11T13:24:01.565Z,1.00
2018-12-11T13:26:35.809Z,1.70
2018-12-11T13:29:10.049Z,3.60
2018-12-11T13:31:45.396Z,8.00
2018-12-11T13:34:20.447Z,8.90
2018-12-11T13:36:54.962Z,11.50
2018-12-11T13:39:29.229Z,8.90
2018-12-11T13:42:05.184Z,6.60
2018-12-11T13:44:39.754Z,6.00
2018-12-11T13:47:15.038Z,1.00
2018-12-11T13:49:50.839Z,1.00
2018-12-11T13:52:26.190Z,2.30
2018-12-11T13:55:00.730Z,1.00
2018-12-11T13:57:35.653Z,1.00
2018-12-11T14:00:09.910Z,1.00
2018-12-11T14:02:44.524Z,1.00
2018-12-11T14:05:19.590Z,1.00
2018-12-11T14:07:54.302Z,1.00
2018-12-11T14:10:30.395Z,1.00
2018-12-11T14:13:05.811Z,1.00
2018-12-11T14:15:46.979Z,1.00
2018-12-11T14:18:21.879Z,1.00
2018-12-11T14:20:57.253Z,1.00
2018-12-11T14:23:32.859Z,1.00
2018-12-11T14:26:14.131Z,1.00
2018-12-11T14:28:50.266Z,1.00
2018-12-11T14:31:35.341Z,1.00
2018-12-11T14:34:13.555Z,1.00
2018-12-11T14:36:53.526Z,1.00
2018-12-11T14:39:34.103Z,1.00
2018-12-11T14:43:16.083Z,1.00
2018-12-11T14:45:51.911Z,1.00
2018-12-11T14:48:28.957Z,1.00
2018-12-11T14:51:05.674Z,1.00
2018-12-11T14:53:41.934Z,1.00
2018-12-11T14:56:21.436Z,1.00
2018-12-11T14:58:57.132Z,1.00
2018-12-11T15:01:37.015Z,1.00
2018-12-11T15:04:11.832Z,1.00
2018-12-11T15:06:49.812Z,1.00
2018-12-11T15:09:30.656Z,1.00
2018-12-11T15:12:08.406Z,1.00
2018-12-11T15:14:49.949Z,1.00
2018-12-11T15:17:25.659Z,1.00
2018-12-11T15:20:08.924Z,1.00
2018-12-11T15:22:44.900Z,1.00
2018-12-11T15:25:19.102Z,1.00
2018-12-11T15:27:53.888Z,1.00
2018-12-11T15:30:28.587Z,1.00
2018-12-11T15:33:02.872Z,1.00
2018-12-11T15:35:38.451Z,1.00
2018-12-11T15:46:35.180Z,1.00
2018-12-11T15:49:16.961Z,1.00
2018-12-11T15:52:00.987Z,1.00
2018-12-11T15:54:43.973Z,1.00
2018-12-11T15:57:29.335Z,1.00
2018-12-11T16:00:11.061Z,1.00
2018-12-11T16:03:05.856Z,1.00
2018-12-11T16:05:51.596Z,1.00
2018-12-11T16:08:39.106Z,1.00
2018-12-11T16:11:32.448Z,1.00
2018-12-11T16:14:27.130Z,1.00
2018-12-11T16:17:19.807Z,1.00
2018-12-11T16:29:22.563Z,1.00
2018-12-11T16:31:59.994Z,1.00
2018-12-11T16:37:57.779Z,1.00
2018-12-11T16:40:38.721Z,1.00
2018-12-11T16:43:22.780Z,1.00
2018-12-11T16:46:02.554Z,1.00
2018-12-11T16:48:37.694Z,1.00
2018-12-11T16:51:23.370Z,1.00
2018-12-11T16:53:59.743Z,1.00
2018-12-11T16:56:36.596Z,1.00
2018-12-11T16:59:12.984Z,1.00
2018-12-11T17:01:50.930Z,1.00
2018-12-11T17:04:27.402Z,1.00
2018-12-11T17:07:02.605Z,1.00
2018-12-11T17:09:46.187Z,1.00
2018-12-11T17:12:40.528Z,1.00
2018-12-11T17:15:30.815Z,1.00
2018-12-11T17:18:05.641Z,1.00
2018-12-11T17:20:49.961Z,1.00
2018-12-11T17:23:25.043Z,1.00
2018-12-11T17:26:05.323Z,1.00
2018-12-11T17:28:42.230Z,1.00
2018-12-11T17:31:16.758Z,1.00
2018-12-11T17:33:52.703Z,1.00
2018-12-11T17:36:31.227Z,1.00
2018-12-11T17:39:08.237Z,1.00
2018-12-11T17:41:43.434Z,1.00
2018-12-11T17:44:17.772Z,1.00
2018-12-11T17:46:53.155Z,1.00
2018-12-11T17:49:28.039Z,1.00
2018-12-11T17:52:03.552Z,1.00
2018-12-11T17:54:39.325Z,1.00
2018-12-11T17:57:14.095Z,1.00
2018-12-11T17:59:48.483Z,1.00
2018-12-11T18:02:28.664Z,1.00
2018-12-11T18:05:04.125Z,1.00
2018-12-11T18:07:39.863Z,1.00
2018-12-11T18:10:14.301Z,1.00
2018-12-11T18:12:49.044Z,1.50
2018-12-11T18:15:23.385Z,2.00
2018-12-11T18:17:58.494Z,3.10
2018-12-11T18:20:33.070Z,3.50
2018-12-11T18:23:09.034Z,4.20
2018-12-11T18:25:44.217Z,5.10
2018-12-11T18:28:18.574Z,6.00
2018-12-11T18:30:53.106Z,6.60
2018-12-11T18:33:28.135Z,8.10
2018-12-11T18:36:09.591Z,9.70
2018-12-11T18:38:44.437Z,11.30
2018-12-11T18:41:19.921Z,12.80
2018-12-11T18:43:55.332Z,14.50
2018-12-11T18:46:30.290Z,14.90
2018-12-11T18:49:04.842Z,15.00
2018-12-11T18:51:39.433Z,15.00
2018-12-11T18:54:14.179Z,15.10
2018-12-11T18:56:49.003Z,13.70
2018-12-11T18:59:23.669Z,13.50
2018-12-11T19:04:43.727Z,12.20
2018-12-11T19:07:21.160Z,12.00
2018-12-11T19:09:56.850Z,11.70
2018-12-11T19:12:32.149Z,12.70
2018-12-11T19:15:11.367Z,12.00
2018-12-11T19:17:46.861Z,11.90
2018-12-11T19:20:23.478Z,12.20
2018-12-11T19:29:13.440Z,13.30
2018-12-11T19:31:49.225Z,13.90
2018-12-11T19:34:26.803Z,14.60
2018-12-11T19:37:01.826Z,14.60
2018-12-11T19:39:38.256Z,14.30
2018-12-11T19:44:54.658Z,13.60
2018-12-11T19:47:32.508Z,13.30
2018-12-11T19:50:08.961Z,12.70
2018-12-11T19:52:49.849Z,11.50
2018-12-11T19:55:28.438Z,12.40
2018-12-11T19:58:03.523Z,12.50
2018-12-11T20:00:42.750Z,11.80
2018-12-11T20:03:17.124Z,13.00
2018-12-11T20:05:51.349Z,12.90
2018-12-11T20:08:30.889Z,13.30
2018-12-11T20:11:02.121Z,13.40
2018-12-11T20:13:36.834Z,13.40
2018-12-11T20:16:12.168Z,13.80
2018-12-11T20:18:47.070Z,14.50
2018-12-11T20:21:23.471Z,14.60
2018-12-11T20:24:15.775Z,14.10
2018-12-11T20:26:50.670Z,14.70
2018-12-11T20:29:31.870Z,15.00
2018-12-11T20:32:24.558Z,15.10
2018-12-11T20:35:18.249Z,15.00
2018-12-11T20:38:11.015Z,14.70
2018-12-11T20:40:56.452Z,15.00
2018-12-11T20:43:37.160Z,15.20
2018-12-11T20:46:16.557Z,15.60
2018-12-11T20:48:51.256Z,15.40
2018-12-11T20:51:25.891Z,15.50
2018-12-11T20:54:00.283Z,15.80
2018-12-11T20:56:40.580Z,16.20
2018-12-11T20:59:17.655Z,16.50
2018-12-11T21:01:54.808Z,16.50
2018-12-11T21:04:30.696Z,16.10
2018-12-11T21:07:10.051Z,16.70
2018-12-11T21:13:08.760Z,16.40
2018-12-11T21:25:01.728Z,15.60
2018-12-11T21:45:54.067Z,20.70
2018-12-11T21:51:38.962Z,22.10
2018-12-11T22:00:38.141Z,22.00
2018-12-11T22:03:18.639Z,22.00
2018-12-11T22:12:00.617Z,22.00
2018-12-11T22:17:43.070Z,22.00
2018-12-11T22:20:21.089Z,22.10
2018-12-11T22:23:01.437Z,22.00
2018-12-11T22:25:37.625Z,22.00
2018-12-11T22:28:13.140Z,22.00
2018-12-11T22:30:52.736Z,22.00
2018-12-11T22:33:29.074Z,21.90
2018-12-11T22:36:07.139Z,22.20
2018-12-11T22:38:42.896Z,22.90
2018-12-11T22:41:18.200Z,23.00
2018-12-11T22:43:53.965Z,22.80
2018-12-11T22:46:29.242Z,23.40
2018-12-11T22:49:06.300Z,23.50
2018-12-11T22:51:47.761Z,23.60
2018-12-11T22:54:24.492Z,24.00
2018-12-11T22:57:09.455Z,24.00
2018-12-11T22:59:52.924Z,24.40
2018-12-11T23:02:32.929Z,24.70
2018-12-11T23:05:08.970Z,24.90
2018-12-11T23:07:45.142Z,24.90
2018-12-11T23:10:25.974Z,25.30
2018-12-11T23:13:04.435Z,25.10
2018-12-11T23:15:41.820Z,25.40
2018-12-11T23:18:17.688Z,25.40
2018-12-11T23:23:37.862Z,25.40
2018-12-11T23:26:15.127Z,25.90
2018-12-11T23:28:50.247Z,26.00
2018-12-11T23:31:25.875Z,26.30
2018-12-11T23:36:41.214Z,26.40
2018-12-11T23:39:15.814Z,26.40
2018-12-11T23:41:51.317Z,26.50
2018-12-11T23:44:26.270Z,26.60
2018-12-11T23:47:01.513Z,27.00
2018-12-11T23:49:35.891Z,26.60
2018-12-11T23:52:10.337Z,26.70
2018-12-11T23:54:44.869Z,27.10
2018-12-11T23:57:20.439Z,27.60
2018-12-11T23:59:56.994Z,27.80
